Flight Track Log - Related Links

Times and Time Zones

All times are in EDT time to prevent confusion due to time zone crossing. See the N99KE flight status page for this flight to view local times or setup timezone preferences in your user account.

Time Position Orientation Groundspeed Altitude Reporting Facility
EDT Latitude Longitude Course Direction KTS MPH feet Rate Location/Type
Fri 04:34:31 PM 38.7333 -76.9667 180° South 85 98 600  Level Potomac TRACON
Fri 04:35:32 PM 38.7167 -76.9667 180° South 98 113 1,600 1,148 Climbing Potomac TRACON
Fri 04:36:26 PM 38.7000 -76.9833 218° Southwest 107 123 2,800 1,316 Climbing Potomac TRACON
Fri 04:37:26 PM 38.6833 -77.0167 237° Southwest 102 117 4,100 1,289 Climbing Potomac TRACON
Fri 04:38:27 PM 38.6833 -77.0500 270° West 93 107 5,400 1,240 Climbing Potomac TRACON
Fri 04:39:27 PM 38.6667 -77.0833 237° Southwest 98 113 6,600 1,190 Climbing Potomac TRACON
Fri 04:40:28 PM 38.6667 -77.1167 270° West 105 121 7,800 694 Climbing Potomac TRACON
Fri 04:41:28 PM 38.6500 -77.1667 247° West 143 165 8,000 100 Climbing Potomac TRACON
Fri 04:42:28 PM 38.6500 -77.2167 270° West 158 182 8,000 -47 Level Potomac TRACON
Fri 04:43:35 PM 38.6333 -77.2833 252° West 156 180 7,900  Descending Potomac TRACON
Fri 04:44:29 PM 38.6333 -77.3167 270° West 162 186 8,000  Climbing Potomac TRACON
Fri 04:45:51 PM 38.6225 -77.3986 260° West 160 184 7,900 -47 Descending Washington Center
Fri 04:46:36 PM 38.6333 -77.4500 285° West 159 183 7,900  Level Potomac TRACON
Fri 04:47:31 PM 38.6333 -77.5000 270° West 158 182 7,900  Level Potomac TRACON
Fri 04:48:37 PM 38.6333 -77.5500 270° West 155 178 7,900  Level Potomac TRACON
Fri 04:49:37 PM 38.6500 -77.6000 293° West 156 180 7,900  Level Potomac TRACON
Fri 04:50:38 PM 38.6667 -77.6500 293° West 155 178 7,900  Level Potomac TRACON
Fri 04:51:38 PM 38.6833 -77.7000 293° West 156 180 7,900  Level Potomac TRACON
Fri 04:52:38 PM 38.7000 -77.7500 293° West 156 180 7,900  Level Potomac TRACON
Fri 04:53:38 PM 38.7167 -77.8000 293° West 159 183 7,900  Level Potomac TRACON
Fri 04:54:32 PM 38.7333 -77.8500 293° West 154 177 7,900  Level Potomac TRACON
Fri 04:55:32 PM 38.7500 -77.9000 293° West 153 176 7,900  Level Potomac TRACON
Fri 04:56:32 PM 38.7667 -77.9500 293° West 161 185 7,900  Level Potomac TRACON
Fri 04:57:49 PM 38.7889 -78.0181 293° West 162 186 7,900 43 Level Washington Center
Fri 04:58:50 PM 38.8086 -78.0719 295° West 162 186 8,000 303 Climbing Washington Center
Fri 04:59:48 PM 38.8203 -78.1150 289° West 145 167 8,500 605 Climbing Washington Center
Fri 05:00:49 PM 38.8358 -78.1608 294° West 145 167 9,200 694 Climbing Washington Center
Fri 05:01:49 PM 38.8558 -78.2094 298° West 139 160 9,900 347 Climbing Washington Center
Fri 05:02:50 PM 38.8822 -78.2397 318° Northwest 155 178 9,900  Level Washington Center
Fri 05:03:48 PM 38.9125 -78.2836 312° West 160 184 9,900  Level Washington Center
Fri 05:04:48 PM 38.9428 -78.3247 313° West 160 184 9,900  Level Washington Center
Fri 05:05:49 PM 38.9731 -78.3658 313° West 160 184 9,900  Level Washington Center
Fri 05:06:49 PM 39.0014 -78.4069 312° West 160 184 9,900  Level Washington Center
Fri 05:07:50 PM 39.0317 -78.4481 313° West 160 184 9,900  Level Washington Center
Fri 05:08:48 PM 39.0642 -78.4894 315° West 160 184 9,900 51 Level Washington Center
Fri 05:09:48 PM 39.0922 -78.5308 311° West 160 184 10,000 50 Climbing Washington Center
Fri 05:10:49 PM 39.1244 -78.5750 313° West 160 184 10,000  Level Washington Center
Fri 05:11:49 PM 39.1547 -78.6136 315° West 160 184 10,000  Level Washington Center
Fri 05:12:50 PM 39.1828 -78.6575 310° West 160 184 10,000  Level Washington Center
Fri 05:13:48 PM 39.2131 -78.6992 313° West 160 184 10,000  Level Washington Center
Fri 05:14:48 PM 39.2411 -78.7378 313° West 160 184 10,000  Level Washington Center
Fri 05:15:49 PM 39.2714 -78.7794 313° West 160 184 10,000  Level Washington Center
Fri 05:16:49 PM 39.3017 -78.8208 313° West 160 184 10,000  Level Washington Center
Fri 05:17:50 PM 39.3297 -78.8625 311° West 160 184 10,000  Level Washington Center
Fri 05:18:50 PM 39.3578 -78.9014 313° West 155 178 10,000  Level Washington Center
Fri 05:21:27 PM 39.4436 -79.0214 313° West 160 184 10,000  Level Cleveland Center
Fri 05:22:27 PM 39.4733 -79.0611 314° West 160 184 10,000  Level Cleveland Center
Fri 05:23:27 PM 39.5008 -79.1008 312° West 155 178 10,000  Level Cleveland Center
Fri 05:24:27 PM 39.5286 -79.1433 310° West 155 178 10,000  Level Cleveland Center
Fri 05:25:27 PM 39.5583 -79.1775 318° Northwest 155 178 10,000  Level Cleveland Center
Fri 05:26:27 PM 39.5858 -79.2228 308° West 155 178 10,000  Level Cleveland Center
Fri 05:27:27 PM 39.6156 -79.2628 314° West 155 178 10,000  Level Cleveland Center
Fri 05:28:27 PM 39.6411 -79.3025 310° West 155 178 10,000  Level Cleveland Center
Fri 05:29:27 PM 39.6706 -79.3425 314° West 155 178 10,000  Level Cleveland Center
Fri 05:30:27 PM 39.6961 -79.3797 312° West 155 178 10,000  Level Cleveland Center
Fri 05:31:27 PM 39.7236 -79.4197 312° West 155 178 10,000  Level Cleveland Center
Fri 05:32:27 PM 39.7531 -79.4597 314° West 155 178 10,000  Level Cleveland Center
Fri 05:33:27 PM 39.7806 -79.4997 312° West 155 178 10,000  Level Cleveland Center
Fri 05:34:27 PM 39.8081 -79.5400 312° West 155 178 10,000  Level Cleveland Center
Fri 05:35:27 PM 39.8356 -79.5800 312° West 155 178 10,000  Level Cleveland Center
Fri 05:36:27 PM 39.8631 -79.6203 312° West 155 178 10,000  Level Cleveland Center
Fri 05:38:27 PM 39.9200 -79.7006 313° West 155 178 10,000  Level Cleveland Center
Fri 05:39:27 PM 39.9494 -79.7408 314° West 155 178 10,000  Level Cleveland Center
Fri 05:40:27 PM 39.9769 -79.7839 310° West 160 184 10,000  Level Cleveland Center
Fri 05:41:27 PM 40.0064 -79.8242 314° West 160 184 10,000  Level Cleveland Center
Fri 05:42:27 PM 40.0358 -79.8700 310° West 160 184 10,000  Level Cleveland Center
Fri 05:43:27 PM 40.0653 -79.9103 314° West 160 184 10,000  Level Cleveland Center
Fri 05:44:27 PM 40.0947 -79.9533 312° West 160 184 10,000  Level Cleveland Center
Fri 05:45:27 PM 40.1242 -79.9967 312° West 160 184 10,000  Level Cleveland Center
Fri 05:46:27 PM 40.1514 -80.0397 310° West 160 184 10,000  Level Cleveland Center
Fri 05:47:27 PM 40.1786 -80.0831 309° West 160 184 10,000  Level Cleveland Center
Fri 05:48:27 PM 40.2081 -80.1264 312° West 160 184 10,000  Level Cleveland Center
Fri 05:49:27 PM 40.2372 -80.1642 315° West 160 184 10,000  Level Cleveland Center
Fri 05:50:27 PM 40.2667 -80.2103 310° West 160 184 10,000  Level Cleveland Center
Fri 05:53:00 PM 40.3314 -80.3345 304° West  Level FlightAware Approximate
Fri 05:55:27 PM 40.4131 -80.4194 304° West 160 184 10,000  Level Cleveland Center
Fri 05:56:27 PM 40.4464 -80.4658 313° West 170 196 10,000 50 Level Cleveland Center
Fri 05:57:27 PM 40.4717 -80.5067 309° West 170 196 10,100 50 Climbing Cleveland Center
Fri 05:58:27 PM 40.5008 -80.5503 311° West 170 196 10,100 -100 Level Cleveland Center
Fri 05:59:27 PM 40.5300 -80.5939 311° West 160 184 9,900 -100 Descending Cleveland Center
Fri 06:00:27 PM 40.5592 -80.6378 311° West 160 184 9,900  Level Cleveland Center
Fri 06:01:27 PM 40.5903 -80.6817 313° West 160 184 9,900 50 Level Cleveland Center
Fri 06:02:27 PM 40.6175 -80.7253 309° West 160 184 10,000 50 Climbing Cleveland Center
Fri 06:03:27 PM 40.6467 -80.7692 311° West 160 184 10,000 -50 Level Cleveland Center
Fri 06:04:27 PM 40.6736 -80.8103 311° West 160 184 9,900  Descending Cleveland Center
Fri 06:05:27 PM 40.7028 -80.8514 313° West 160 184 10,000 50 Climbing Cleveland Center
Fri 06:06:27 PM 40.7297 -80.8956 309° West 160 184 10,000  Level Cleveland Center
Fri 06:07:27 PM 40.7586 -80.9367 313° West 160 184 10,000 -50 Level Cleveland Center
Fri 06:08:27 PM 40.7836 -80.9781 309° West 160 184 9,900 -50 Descending Cleveland Center
Fri 06:09:27 PM 40.8125 -81.0194 313° West 160 184 9,900 50 Level Cleveland Center
Fri 06:10:27 PM 40.8394 -81.0633 309° West 160 184 10,000  Climbing Cleveland Center
Fri 06:11:27 PM 40.8644 -81.1019 311° West 160 184 9,900 -50 Descending Cleveland Center
Fri 06:12:27 PM 40.8892 -81.1406 310° West 154 177 9,900 52 Level Cleveland Center
Fri 06:13:23 PM 40.9139 -81.1822 308° West 139 160 10,000 51 Climbing Cleveland Center
Fri 06:14:24 PM 40.9389 -81.2236 309° West 140 161 10,000  Level Cleveland Center
Fri 06:15:27 PM 40.9658 -81.2567 317° Northwest 138 159 10,000  Level Cleveland Center
Fri 06:16:27 PM 40.9947 -81.3011 311° West 132 152 10,000  Level Cleveland Center
Fri 06:17:27 PM 41.0194 -81.3400 310° West 137 158 10,000  Level Cleveland Center
Fri 06:18:27 PM 41.0461 -81.3789 312° West 137 158 10,000  Level Cleveland Center
Fri 06:19:27 PM 41.0708 -81.4175 310° West 137 158 10,000  Level Cleveland Center
Fri 06:20:27 PM 41.0956 -81.4564 310° West 137 158 10,000  Level Cleveland Center
Fri 06:21:27 PM 41.1225 -81.4956 312° West 137 158 10,000  Level Cleveland Center
Fri 06:22:27 PM 41.1492 -81.5372 310° West 137 158 10,000  Level Cleveland Center
Fri 06:23:37 PM 41.1781 -81.5872 308° West 145 167 10,000  Level Cleveland Center
Fri 06:24:38 PM 41.2047 -81.6264 312° West 144 166 10,000  Level Cleveland Center
Fri 06:25:39 PM 41.2314 -81.6681 310° West 144 166 10,000  Level Cleveland Center
Fri 06:26:34 PM 41.2561 -81.7017 314° West 143 165 10,000  Level Cleveland Center
Fri 06:27:34 PM 41.2808 -81.7436 308° West 146 168 10,000  Level Cleveland Center
Fri 06:28:35 PM 41.3075 -81.7856 310° West 144 166 10,000  Level Cleveland Center
Fri 06:29:30 PM 41.3319 -81.8219 312° West 147 169 10,000  Level Cleveland Center
Fri 06:31:01 PM 41.3708 -81.8836 310° West 144 166 10,000  Level Cleveland Center
Fri 06:32:39 PM 41.4161 -81.9536 311° West 146 168 10,000  Level Cleveland Center
Fri 06:33:39 PM 41.4425 -81.9931 312° West 146 168 10,000 -50 Level Cleveland Center
Fri 06:34:39 PM 41.4672 -82.0297 312° West 155 178 9,900 -50 Descending Cleveland Center
Fri 06:35:39 PM 41.4917 -82.0689 310° West 150 173 9,900 50 Level Cleveland Center
Fri 06:36:39 PM 41.5142 -82.1056 309° West 145 167 10,000 50 Climbing Cleveland Center
Fri 06:37:39 PM 41.5408 -82.1450 312° West 139 160 10,000  Level Cleveland Center
Fri 06:38:39 PM 41.5672 -82.1844 312° West 139 160 10,000  Level Cleveland Center
Fri 06:39:39 PM 41.5917 -82.2267 308° West 139 160 10,000  Level Cleveland Center
Fri 06:40:39 PM 41.6161 -82.2661 310° West 139 160 10,000  Level Cleveland Center
Fri 06:41:39 PM 41.6447 -82.3114 310° West 141 162 10,000  Level Cleveland Center
Fri 06:42:39 PM 41.6711 -82.3511 312° West 134 154 10,000  Level Cleveland Center
Fri 06:43:39 PM 41.6956 -82.3936 308° West 134 154 10,000  Level Cleveland Center
Fri 06:44:39 PM 41.7200 -82.4331 310° West 134 154 10,000  Level Cleveland Center
Fri 06:45:39 PM 41.7464 -82.4728 312° West 134 154 10,000  Level Cleveland Center
Fri 06:46:39 PM 41.7728 -82.5125 312° West 134 154 10,000  Level Cleveland Center
Fri 06:47:10 PM 41.7831 -82.5242 320° Northwest 143 165 10,000  Level Cleveland Center
Fri 06:48:11 PM 41.8156 -82.5753 310° West 143 165 10,000  Level Cleveland Center
Fri 06:49:12 PM 41.8375 -82.6206 303° West 144 166 10,000 -141 Level Cleveland Center
Fri 06:50:19 PM 41.8575 -82.6714 298° West 143 165 9,700 -558 Descending Cleveland Center
Fri 06:51:21 PM 41.8814 -82.7278 300° West 165 190 8,800 -923 Descending Cleveland Center
Fri 06:52:16 PM 41.8994 -82.7786 296° West 164 189 7,900 -983 Descending Cleveland Center
Fri 06:53:17 PM 41.9233 -82.8297 302° West 167 192 6,900 -927 Descending Cleveland Center
Fri 06:54:19 PM 41.9472 -82.8864 300° West 167 192 6,000 -927 Descending Cleveland Center
Fri 06:55:20 PM 41.9692 -82.9403 299° West 167 192 5,000 -934 Descending Cleveland Center
Fri 06:56:21 PM 41.9928 -82.9969 299° West 166 191 4,100 -836 Descending Cleveland Center
Fri 06:57:22 PM 42.0147 -83.0508 299° West 162 186 3,300 -983 Descending Cleveland Center
Fri 06:58:17 PM 42.0367 -83.0964 303° West 169 194 2,200 -1,034 Descending Cleveland Center
Fri 06:59:18 PM 42.0686 -83.1539 307° West 169 194 1,300 -885 Descending Cleveland Center
Fri 07:01:00 PM 42.0833 -83.1500 294° West  Level FlightAware Approximate
Fri 07:08:00 PM 42.0991 -83.1615 294° West  Level Estimated
Fri 07:09:00 PM 42.0991 -83.1615 294° West  Level Estimated
Fri 07:10:00 PM 42.0991 -83.1615 294° West  Level Estimated

Login

Don't have an account? Register now (free) for customized features, flight alerts, and more!